Time;durP1;ratioP1;P1;durP2;ratioP2;P2;SDS_P1;SDS_P2;PMS_P1;PMS_P2;Temp;Humidity;BMP_temperature;BMP_pressure;BME280_temperature;BME280_humidity;BME280_pressure;Samples;Min_cycle;Max_cycle;Signal;HPM_P1;HPM_P2
2023/04/02 00:01:05;;;;;;;4.50;4.13;;;11.30;78.60;;;;;;5041306;28;20041;-52
2023/04/02 00:03:43;;;;;;;4.13;3.80;;;11.30;78.50;;;;;;5050359;28;20478;-49
2023/04/02 00:06:32;;;;;;;3.95;3.65;;;11.20;78.50;;;;;;5050382;28;20120;-50
2023/04/02 00:09:13;;;;;;;4.03;3.72;;;11.20;78.40;;;;;;5050708;28;20041;-49
2023/04/02 00:11:47;;;;;;;3.83;3.53;;;11.20;78.30;;;;;;5044780;28;20048;-50
2023/04/02 00:14:23;;;;;;;3.60;3.30;;;11.20;78.30;;;;;;5050171;28;20055;-50
2023/04/02 00:16:54;;;;;;;3.63;3.33;;;11.10;78.30;;;;;;5051085;28;20045;-47
2023/04/02 00:19:45;;;;;;;2.92;2.72;;;11.10;78.40;;;;;;5050846;28;20493;-49
2023/04/02 00:22:19;;;;;;;3.63;3.33;;;11.10;78.20;;;;;;5045454;28;20041;-50
2023/04/02 00:24:52;;;;;;;3.08;2.88;;;11.10;78.30;;;;;;5050355;28;20037;-50
2023/04/02 00:27:19;;;;;;;3.70;3.40;;;11.00;78.90;;;;;;5050805;28;20044;-50
2023/04/02 00:29:53;;;;;;;3.30;3.10;;;11.00;78.40;;;;;;5046023;28;20052;-51
2023/04/02 00:32:37;;;;;;;3.50;3.20;;;11.00;78.40;;;;;;5050304;28;20045;-49
2023/04/02 00:35:25;;;;;;;3.97;3.65;;;11.00;78.50;;;;;;5032232;28;20045;-49
2023/04/02 00:37:57;;;;;;;3.80;3.50;;;11.00;78.50;;;;;;5040901;28;20159;-47
2023/04/02 00:40:29;;;;;;;4.15;3.78;;;11.00;78.30;;;;;;5050425;28;20060;-51
2023/04/02 00:42:58;;;;;;;4.07;3.78;;;11.00;78.30;;;;;;5032235;28;20041;-51
2023/04/02 00:45:33;;;;;;;5.28;4.20;;;10.90;78.10;;;;;;5044359;28;20061;-51
2023/04/02 00:48:30;;;;;;;5.43;4.93;;;11.00;78.20;;;;;;5049025;28;20072;-51
2023/04/02 00:51:08;;;;;;;4.55;4.15;;;10.90;78.00;;;;;;5023350;28;20068;-48
2023/04/02 00:53:35;;;;;;;5.20;4.43;;;10.90;78.00;;;;;;5018578;28;20497;-51
2023/04/02 00:56:02;;;;;;;4.97;4.57;;;10.90;77.90;;;;;;5050198;28;20059;-47
2023/04/02 00:58:35;;;;;;;4.65;4.25;;;10.90;78.00;;;;;;5046820;28;20033;-49
2023/04/02 01:01:03;;;;;;;4.57;3.97;;;10.90;77.90;;;;;;5047676;28;20045;-52
2023/04/02 01:03:38;;;;;;;4.32;4.03;;;10.70;77.90;;;;;;5049609;28;20037;-49
2023/04/02 01:06:13;;;;;;;4.47;4.05;;;10.80;77.90;;;;;;5024690;28;20533;-48
2023/04/02 01:09:05;;;;;;;3.97;3.67;;;10.80;77.90;;;;;;5044587;28;20079;-47
2023/04/02 01:12:06;;;;;;;4.03;3.63;;;10.80;77.80;;;;;;5047452;28;20033;-52
2023/04/02 01:14:52;;;;;;;4.65;4.25;;;10.80;77.80;;;;;;5047429;28;20132;-51
2023/04/02 01:17:43;;;;;;;4.20;3.90;;;10.80;78.00;;;;;;5019405;28;20141;-52
2023/04/02 01:20:25;;;;;;;4.65;4.25;;;10.80;78.10;;;;;;5051935;28;20658;-51
2023/04/02 01:23:04;;;;;;;4.25;3.95;;;10.80;78.20;;;;;;5030154;28;20421;-49
2023/04/02 01:25:42;;;;;;;4.55;4.15;;;10.80;78.10;;;;;;5051894;28;20059;-52
2023/04/02 01:28:09;;;;;;;3.97;3.67;;;10.80;77.80;;;;;;5054151;28;20045;-50
2023/04/02 01:30:42;;;;;;;4.20;3.80;;;10.80;77.70;;;;;;5048345;28;20524;-52
2023/04/02 01:33:20;;;;;;;5.35;4.35;;;10.80;77.40;;;;;;5019852;28;20518;-51
2023/04/02 01:35:58;;;;;;;4.53;4.13;;;10.80;77.20;;;;;;5046581;28;20160;-51
2023/04/02 01:38:32;;;;;;;4.53;4.13;;;10.70;77.10;;;;;;5053739;28;20041;-51
2023/04/02 01:41:15;;;;;;;5.07;4.65;;;10.70;77.00;;;;;;5030114;28;20053;-50
2023/04/02 01:43:50;;;;;;;5.93;4.32;;;10.70;77.30;;;;;;5053468;28;20061;-52
2023/04/02 01:46:30;;;;;;;4.57;3.97;;;10.60;77.40;;;;;;5018790;28;20046;-51
2023/04/02 01:49:01;;;;;;;4.18;3.80;;;10.60;77.60;;;;;;5051340;28;20439;-51
2023/04/02 01:51:34;;;;;;;4.30;3.90;;;10.50;77.50;;;;;;5046260;28;20533;-52
2023/04/02 01:54:08;;;;;;;4.20;3.90;;;10.50;77.50;;;;;;5035558;28;20061;-52
2023/04/02 01:56:39;;;;;;;3.70;3.40;;;10.50;77.50;;;;;;5035499;28;20041;-50
2023/04/02 01:59:15;;;;;;;3.83;3.53;;;10.50;77.50;;;;;;5053383;28;20493;-51
2023/04/02 02:01:57;;;;;;;3.03;2.83;;;10.50;77.50;;;;;;5043653;28;20124;-52
2023/04/02 02:04:30;;;;;;;3.47;3.17;;;10.50;77.60;;;;;;5049072;28;20141;-50
2023/04/02 02:06:59;;;;;;;4.80;4.40;;;10.40;77.60;;;;;;5021270;28;20132;-47
2023/04/02 02:09:34;;;;;;;4.45;4.00;;;10.40;77.70;;;;;;5026383;28;20049;-51
2023/04/02 02:12:05;;;;;;;5.15;4.65;;;10.40;77.80;;;;;;5048395;28;20055;-51
2023/04/02 02:14:32;;;;;;;5.70;4.88;;;10.40;77.80;;;;;;5041391;28;20398;-52
2023/04/02 02:17:12;;;;;;;5.60;5.10;;;10.40;77.80;;;;;;5051848;28;20072;-51
2023/04/02 02:19:46;;;;;;;5.80;5.20;;;10.50;77.70;;;;;;5053281;28;20801;-51
2023/04/02 02:22:35;;;;;;;5.57;5.00;;;10.40;77.60;;;;;;5046115;28;20041;-51
2023/04/02 02:25:17;;;;;;;4.60;4.20;;;10.40;77.50;;;;;;5034815;28;20409;-48
2023/04/02 02:28:12;;;;;;;3.70;3.40;;;10.50;77.30;;;;;;5051707;28;20043;-50
2023/04/02 02:31:02;;;;;;;3.92;3.63;;;10.50;77.30;;;;;;5039679;28;20052;-47
2023/04/02 02:33:40;;;;;;;3.90;2.85;;;10.40;77.10;;;;;;5034012;28;20061;-50
2023/04/02 02:36:32;;;;;;;3.58;3.25;;;10.40;77.20;;;;;;5018526;28;20099;-50
2023/04/02 02:39:33;;;;;;;4.18;3.75;;;10.50;77.10;;;;;;5030992;28;20049;-47
2023/04/02 02:42:23;;;;;;;5.75;5.10;;;10.50;77.10;;;;;;5047720;28;20060;-50
2023/04/02 02:44:55;;;;;;;4.60;4.10;;;10.50;76.70;;;;;;5032784;28;20072;-49
2023/04/02 02:47:28;;;;;;;5.57;4.38;;;10.40;76.50;;;;;;5048465;28;20452;-54
2023/04/02 02:50:13;;;;;;;5.70;4.50;;;10.40;76.50;;;;;;5049185;28;20049;-50
2023/04/02 02:52:45;;;;;;;5.68;4.85;;;10.40;76.40;;;;;;5047805;28;20124;-50
2023/04/02 02:55:35;;;;;;;5.35;4.85;;;10.40;76.40;;;;;;5017758;28;20045;-48
2023/04/02 02:58:21;;;;;;;4.97;4.57;;;10.40;76.50;;;;;;5027062;28;20418;-45
2023/04/02 03:01:15;;;;;;;6.22;5.60;;;10.40;76.80;;;;;;5049260;28;20459;-48
2023/04/02 03:03:46;;;;;;;5.85;5.22;;;10.40;76.80;;;;;;5022143;28;20049;-48
2023/04/02 03:06:16;;;;;;;4.60;4.20;;;10.40;76.60;;;;;;5037768;22;20076;-45
2023/04/02 03:08:55;;;;;;;5.85;5.35;;;10.40;76.50;;;;;;5047879;28;20557;-46
2023/04/02 03:11:49;;;;;;;5.13;4.60;;;10.40;76.60;;;;;;5028280;28;20457;-44
2023/04/02 03:14:36;;;;;;;6.10;5.30;;;10.50;76.50;;;;;;5042873;28;20053;-43
2023/04/02 03:17:30;;;;;;;4.97;4.57;;;10.40;76.40;;;;;;5030687;28;20429;-43
2023/04/02 03:20:25;;;;;;;4.25;3.42;;;10.40;76.00;;;;;;5017127;28;20046;-45
2023/04/02 03:23:07;;;;;;;3.50;3.17;;;10.40;75.90;;;;;;5016942;28;20034;-44
2023/04/02 03:26:00;;;;;;;2.60;2.40;;;10.40;75.70;;;;;;5034761;28;20049;-43
2023/04/02 03:28:36;;;;;;;3.80;3.50;;;10.40;75.60;;;;;;5029627;28;20117;-43
2023/04/02 03:31:18;;;;;;;4.18;3.15;;;10.30;75.50;;;;;;5012545;28;20100;-43
2023/04/02 03:34:10;;;;;;;6.10;3.33;;;10.40;75.40;;;;;;5015448;28;20050;-45
2023/04/02 03:36:55;;;;;;;3.28;3.00;;;10.30;75.60;;;;;;5030009;28;20137;-45
2023/04/02 03:39:43;;;;;;;4.18;2.70;;;10.30;75.70;;;;;;5022578;28;20104;-44
2023/04/02 03:42:18;;;;;;;3.50;3.20;;;10.20;75.80;;;;;;5019436;28;20041;-44
2023/04/02 03:45:03;;;;;;;;;;;10.20;75.70;;;;;;5030393;28;20045;-44
2023/04/02 03:47:46;;;;;;;3.03;2.80;;;10.30;75.80;;;;;;5017884;28;19961;-45
2023/04/02 03:50:44;;;;;;;4.13;3.72;;;10.20;75.70;;;;;;5001969;28;20056;-45
2023/04/02 03:53:12;;;;;;;3.67;3.38;;;10.30;75.70;;;;;;5019825;28;20144;-44
2023/04/02 03:55:45;;;;;;;4.00;3.60;;;10.20;75.70;;;;;;5015854;28;20034;-46
2023/04/02 03:58:22;;;;;;;4.85;4.22;;;10.20;75.80;;;;;;5029941;28;20506;-47
2023/04/02 04:01:12;;;;;;;4.20;3.90;;;10.20;75.80;;;;;;5020384;28;20041;-45
2023/04/02 04:04:13;;;;;;;4.20;3.80;;;10.10;75.50;;;;;;5029909;28;20046;-45
2023/04/02 04:06:42;;;;;;;3.67;3.38;;;10.20;75.20;;;;;;5028856;28;20042;-46
2023/04/02 04:09:16;;;;;;;3.78;2.97;;;10.10;75.20;;;;;;5020586;28;20638;-45
2023/04/02 04:11:51;;;;;;;2.90;2.70;;;10.10;75.20;;;;;;5004239;28;20073;-45
2023/04/02 04:14:20;;;;;;;5.45;3.47;;;10.10;75.20;;;;;;5025083;28;20057;-44
2023/04/02 04:17:08;;;;;;;4.43;4.03;;;10.00;75.20;;;;;;5030701;28;20049;-42
2023/04/02 04:19:48;;;;;;;3.72;3.42;;;10.00;75.20;;;;;;5029697;28;20127;-46
2023/04/02 04:22:32;;;;;;;4.00;3.70;;;10.00;74.90;;;;;;5009826;28;20045;-44
2023/04/02 04:25:28;;;;;;;4.15;3.75;;;10.00;74.90;;;;;;5022294;28;20096;-44
2023/04/02 04:28:29;;;;;;;4.47;4.07;;;10.00;74.50;;;;;;5035638;28;20072;-44
2023/04/02 04:31:07;;;;;;;4.65;4.25;;;10.00;74.60;;;;;;5008602;28;20054;-44
2023/04/02 04:33:46;;;;;;;4.80;4.40;;;9.90;74.70;;;;;;5028842;28;20049;-44
2023/04/02 04:36:30;;;;;;;4.75;4.35;;;9.90;74.70;;;;;;5029002;28;20049;-44
2023/04/02 04:39:13;;;;;;;4.57;4.13;;;9.90;74.90;;;;;;5009033;28;20045;-45
2023/04/02 04:41:48;;;;;;;4.20;3.88;;;9.90;74.90;;;;;;5014723;28;20047;-43
2023/04/02 04:44:35;;;;;;;4.55;4.15;;;9.90;75.20;;;;;;5007706;28;20065;-45
2023/04/02 04:47:29;;;;;;;5.43;4.50;;;9.90;75.20;;;;;;5011062;28;20096;-45
2023/04/02 04:50:05;;;;;;;5.05;4.55;;;9.90;75.50;;;;;;5032034;28;20395;-44
2023/04/02 04:52:38;;;;;;;6.55;5.38;;;9.90;75.50;;;;;;5012523;28;20099;-45
2023/04/02 04:55:37;;;;;;;;;;;9.90;75.10;;;;;;5044025;28;20639;-45
2023/04/02 04:58:14;;;;;;;5.97;5.47;;;9.90;75.20;;;;;;5010522;28;20397;-44
2023/04/02 05:01:06;;;;;;;7.55;6.75;;;9.90;74.80;;;;;;5009025;28;20041;-44
2023/04/02 05:04:03;;;;;;;8.48;7.10;;;9.90;74.60;;;;;;5029072;28;20513;-44
2023/04/02 05:06:54;;;;;;;7.90;6.45;;;9.90;74.70;;;;;;5003009;28;20042;-43
2023/04/02 05:09:33;;;;;;;7.18;6.30;;;9.80;74.80;;;;;;5021597;28;20033;-43
2023/04/02 05:12:12;;;;;;;9.15;6.50;;;9.80;75.00;;;;;;5010413;28;20085;-44
2023/04/02 05:15:01;;;;;;;6.90;6.13;;;9.70;74.90;;;;;;5010139;28;20095;-43
2023/04/02 05:17:49;;;;;;;10.13;6.95;;;9.70;74.90;;;;;;5029288;28;20053;-46
2023/04/02 05:20:25;;;;;;;6.75;6.05;;;9.70;74.90;;;;;;5012993;28;20046;-46
2023/04/02 05:23:09;;;;;;;7.22;6.53;;;9.60;74.90;;;;;;5006487;28;20100;-44
2023/04/02 05:26:07;;;;;;;7.35;6.63;;;9.60;74.90;;;;;;5008951;28;20114;-46
2023/04/02 05:28:45;;;;;;;7.03;6.13;;;9.60;74.90;;;;;;5008685;28;20054;-44
2023/04/02 05:31:18;;;;;;;7.72;6.72;;;9.60;74.80;;;;;;5024847;28;20470;-46
2023/04/02 05:33:48;;;;;;;9.30;7.72;;;9.60;74.90;;;;;;5030229;28;20046;-46
2023/04/02 05:36:25;;;;;;;8.43;7.53;;;9.50;74.70;;;;;;5030149;28;20045;-45
2023/04/02 05:38:57;;;;;;;9.57;7.65;;;9.50;74.70;;;;;;5007656;28;20049;-43
2023/04/02 05:41:44;;;;;;;7.78;7.07;;;9.40;75.10;;;;;;5012581;28;20076;-44
2023/04/02 05:44:44;;;;;;;7.78;6.85;;;9.40;75.00;;;;;;5026788;28;20053;-43
2023/04/02 05:47:29;;;;;;;9.48;6.32;;;9.40;74.60;;;;;;5013866;28;20050;-43
2023/04/02 05:50:09;;;;;;;7.22;6.53;;;9.40;74.60;;;;;;5023531;28;20457;-44
2023/04/02 05:53:17;;;;;;;7.75;6.07;;;9.30;74.60;;;;;;5012691;28;20041;-43
2023/04/02 05:56:02;;;;;;;8.27;6.05;;;9.30;74.50;;;;;;5024318;28;20054;-45
2023/04/02 05:59:02;;;;;;;7.63;6.82;;;9.30;74.50;;;;;;5018293;28;20043;-44
2023/04/02 06:01:59;;;;;;;8.20;6.00;;;9.30;74.20;;;;;;5008578;28;20050;-44
2023/04/02 06:04:40;;;;;;;6.72;5.47;;;9.30;74.50;;;;;;5030377;28;20148;-43
2023/04/02 06:07:35;;;;;;;8.50;5.90;;;9.20;74.60;;;;;;5020844;28;20042;-43
2023/04/02 06:10:23;;;;;;;7.57;5.85;;;9.20;74.70;;;;;;5002065;28;20042;-45
2023/04/02 06:13:02;;;;;;;6.75;6.05;;;9.20;74.70;;;;;;5007745;28;20046;-46
2023/04/02 06:15:35;;;;;;;9.13;6.53;;;9.20;74.70;;;;;;5014117;28;20185;-47
2023/04/02 06:18:23;;;;;;;12.63;9.55;;;9.20;74.70;;;;;;5030711;28;20081;-44
2023/04/02 06:20:55;;;;;;;12.00;10.40;;;9.20;74.20;;;;;;5004705;28;20046;-43
2023/04/02 06:23:51;;;;;;;11.95;9.73;;;9.20;74.40;;;;;;5026235;28;20074;-46
2023/04/02 06:26:38;;;;;;;11.95;10.50;;;9.20;74.40;;;;;;5029811;28;20045;-46
2023/04/02 06:29:26;;;;;;;12.32;9.93;;;9.20;74.40;;;;;;5007389;28;20049;-45
2023/04/02 06:32:00;;;;;;;12.43;10.30;;;9.20;74.70;;;;;;5003082;28;20046;-44
2023/04/02 06:34:30;;;;;;;12.27;9.75;;;9.20;74.40;;;;;;5033150;28;20042;-46
2023/04/02 06:37:02;;;;;;;;;;;9.20;74.30;;;;;;5031743;28;20062;-48
2023/04/02 06:39:31;;;;;;;13.13;9.27;;;9.20;74.30;;;;;;5011021;28;19929;-44
2023/04/02 06:42:18;;;;;;;10.98;8.02;;;9.20;74.40;;;;;;5015959;28;20096;-43
2023/04/02 06:45:17;;;;;;;9.02;7.93;;;9.20;74.40;;;;;;5016630;28;20045;-44
2023/04/02 06:47:55;;;;;;;11.50;7.75;;;9.20;74.50;;;;;;4999885;28;20050;-44
2023/04/02 06:50:48;;;;;;;13.45;7.53;;;9.20;74.50;;;;;;5013600;28;20050;-46
2023/04/02 06:53:30;;;;;;;10.82;8.07;;;9.20;74.30;;;;;;5037869;28;20048;-44
2023/04/02 06:56:22;;;;;;;10.77;8.88;;;9.20;74.30;;;;;;5020777;28;20581;-44
2023/04/02 06:58:49;;;;;;;13.13;9.82;;;9.20;74.20;;;;;;5014285;28;20041;-49
2023/04/02 07:01:25;;;;;;;13.77;9.15;;;9.20;74.10;;;;;;5006559;28;20542;-45
2023/04/02 07:03:52;;;;;;;12.10;8.27;;;9.20;73.70;;;;;;5030124;28;20472;-47
2023/04/02 07:06:42;;;;;;;14.10;10.20;;;9.20;73.40;;;;;;5016442;28;20460;-44
2023/04/02 07:09:11;;;;;;;9.70;7.65;;;9.20;73.00;;;;;;5014909;28;20038;-46
2023/04/02 07:11:42;;;;;;;8.45;7.25;;;9.20;72.70;;;;;;5015984;28;20045;-45
2023/04/02 07:14:12;;;;;;;8.82;7.68;;;9.10;72.70;;;;;;5017329;28;20041;-44
2023/04/02 07:16:42;;;;;;;13.13;8.27;;;9.10;72.50;;;;;;5012336;28;20056;-45
2023/04/02 07:19:18;;;;;;;10.77;8.38;;;9.10;72.60;;;;;;5017111;28;20041;-44
2023/04/02 07:21:46;;;;;;;11.07;8.15;;;9.10;72.60;;;;;;5014343;28;20043;-47
2023/04/02 07:24:13;;;;;;;10.70;7.78;;;9.00;72.80;;;;;;5014269;28;20402;-44
2023/04/02 07:26:40;;;;;;;9.27;7.13;;;9.00;72.60;;;;;;5022958;28;20120;-47
2023/04/02 07:29:12;;;;;;;9.32;6.88;;;9.00;72.70;;;;;;5022055;28;20449;-44
2023/04/02 07:31:39;;;;;;;8.10;7.30;;;9.00;72.70;;;;;;5021993;28;20057;-48
2023/04/02 07:34:07;;;;;;;9.90;6.60;;;9.00;72.60;;;;;;5027824;28;20060;-45
2023/04/02 07:36:34;;;;;;;10.10;6.82;;;9.00;72.50;;;;;;5019584;28;20041;-44
2023/04/02 07:39:03;;;;;;;12.38;7.07;;;9.00;72.30;;;;;;5025446;28;20038;-46
2023/04/02 07:41:32;;;;;;;10.18;7.22;;;9.00;72.40;;;;;;5016445;28;20049;-44
2023/04/02 07:43:59;;;;;;;11.77;6.43;;;9.00;72.70;;;;;;5008524;28;20438;-45
2023/04/02 07:46:26;;;;;;;7.93;6.45;;;9.00;72.70;;;;;;5019785;28;20037;-44
2023/04/02 07:48:52;;;;;;;9.95;6.45;;;9.00;72.70;;;;;;5031824;28;20034;-43
2023/04/02 07:51:22;;;;;;;8.40;6.75;;;9.00;72.60;;;;;;5015124;28;20387;-46
2023/04/02 07:53:55;;;;;;;8.80;6.15;;;9.10;72.60;;;;;;5020407;28;20571;-44
2023/04/02 07:56:23;;;;;;;7.10;6.10;;;9.10;72.50;;;;;;5011645;28;20041;-45
2023/04/02 07:58:50;;;;;;;9.57;5.97;;;9.10;72.50;;;;;;5029340;28;20048;-46
2023/04/02 08:01:22;;;;;;;9.80;6.65;;;9.20;72.20;;;;;;5010741;28;20105;-48
2023/04/02 08:03:49;;;;;;;;;;;9.20;72.00;;;;;;5020793;28;20377;-44
2023/04/02 08:06:20;;;;;;;7.72;6.00;;;9.20;71.90;;;;;;5024246;28;20380;-46
2023/04/02 08:08:46;;;;;;;11.35;6.43;;;9.20;72.10;;;;;;5022172;28;20116;-45
2023/04/02 08:11:13;;;;;;;9.57;6.55;;;9.30;72.00;;;;;;5016696;28;20045;-46
2023/04/02 08:13:40;;;;;;;7.78;6.40;;;9.30;71.80;;;;;;5018998;28;21304;-44
2023/04/02 08:16:07;;;;;;;6.47;5.85;;;9.40;71.80;;;;;;5012628;28;20042;-46
2023/04/02 08:18:34;;;;;;;6.70;5.93;;;9.40;71.50;;;;;;5012338;28;20042;-44
2023/04/02 08:21:01;;;;;;;7.30;5.93;;;9.40;71.50;;;;;;5010431;28;20108;-47
2023/04/02 08:23:28;;;;;;;6.60;5.97;;;9.40;71.50;;;;;;5013368;28;20042;-45
2023/04/02 08:25:54;;;;;;;7.53;6.00;;;9.40;71.20;;;;;;5021570;28;20065;-48
2023/04/02 08:28:21;;;;;;;7.18;6.07;;;9.40;70.90;;;;;;5013853;28;20042;-45
2023/04/02 08:30:48;;;;;;;6.82;6.05;;;9.40;70.60;;;;;;5010447;28;20489;-46
2023/04/02 08:33:16;;;;;;;7.00;6.28;;;9.40;70.50;;;;;;5013886;28;20038;-44
2023/04/02 08:35:45;;;;;;;9.30;6.72;;;9.40;70.50;;;;;;5028564;28;20091;-45
2023/04/02 08:38:14;;;;;;;8.10;6.63;;;9.50;70.30;;;;;;5022488;28;20068;-44
2023/04/02 08:40:44;;;;;;;10.25;6.90;;;9.40;70.00;;;;;;5020267;28;20617;-46
2023/04/02 08:43:36;;;;;;;6.50;5.90;;;9.40;69.80;;;;;;5007126;28;20034;-44
2023/04/02 08:46:05;;;;;;;10.98;6.03;;;9.40;69.50;;;;;;5008941;28;20025;-45
2023/04/02 08:48:35;;;;;;;7.47;6.22;;;9.40;70.30;;;;;;5020272;28;20038;-44
2023/04/02 08:51:03;;;;;;;6.10;5.47;;;9.40;70.80;;;;;;5011032;28;20038;-45
2023/04/02 08:53:33;;;;;;;7.55;5.70;;;9.40;70.20;;;;;;5018745;28;20041;-44
2023/04/02 08:56:17;;;;;;;8.90;5.97;;;9.50;70.00;;;;;;5027920;28;20048;-47
2023/04/02 08:58:56;;;;;;;5.97;5.35;;;9.40;69.50;;;;;;5022994;28;20052;-45
2023/04/02 09:01:41;;;;;;;8.18;5.65;;;9.50;69.70;;;;;;5007981;28;20542;-47
2023/04/02 09:04:20;;;;;;;6.05;5.47;;;9.50;69.50;;;;;;5013449;28;20049;-44
2023/04/02 09:06:51;;;;;;;6.25;5.65;;;9.50;69.70;;;;;;5028626;28;20038;-44
2023/04/02 09:09:22;;;;;;;7.00;6.40;;;9.50;69.80;;;;;;5011590;28;20046;-44
2023/04/02 09:12:03;;;;;;;11.43;6.88;;;9.50;69.40;;;;;;5026800;23;20148;-47
2023/04/02 09:14:44;;;;;;;8.73;6.57;;;9.60;69.00;;;;;;5026125;28;20490;-46
2023/04/02 09:17:21;;;;;;;7.20;6.53;;;9.60;69.00;;;;;;5029149;28;20052;-45
2023/04/02 09:20:00;;;;;;;8.13;6.78;;;9.60;69.50;;;;;;5025059;28;20402;-50
2023/04/02 09:22:31;;;;;;;7.55;6.45;;;9.70;69.40;;;;;;5023677;28;20077;-49
2023/04/02 09:25:03;;;;;;;9.27;7.75;;;9.70;69.70;;;;;;5028984;28;20044;-46
2023/04/02 09:27:33;;;;;;;8.15;6.72;;;9.70;69.80;;;;;;5029464;28;20061;-49
2023/04/02 09:30:09;;;;;;;9.02;7.60;;;9.80;69.90;;;;;;5024399;28;20041;-45
2023/04/02 09:32:49;;;;;;;6.85;6.20;;;9.90;69.60;;;;;;5025849;28;20060;-45
2023/04/02 09:35:22;;;;;;;7.85;6.50;;;9.90;68.80;;;;;;5028335;28;20065;-48
2023/04/02 09:38:17;;;;;;;7.38;6.68;;;9.90;68.40;;;;;;5032393;28;20061;-48
2023/04/02 09:41:00;;;;;;;8.57;6.75;;;10.00;68.20;;;;;;5028695;28;20038;-50
2023/04/02 09:43:35;;;;;;;6.85;6.15;;;10.00;68.60;;;;;;5028272;28;20045;-46
2023/04/02 09:46:05;;;;;;;6.97;5.93;;;10.10;68.70;;;;;;5031474;28;20038;-48
2023/04/02 09:48:36;;;;;;;10.73;7.47;;;10.10;68.80;;;;;;5030553;28;20037;-49
2023/04/02 09:51:20;;;;;;;7.60;6.90;;;10.20;68.50;;;;;;5028208;28;20041;-46
2023/04/02 09:54:07;;;;;;;7.90;7.13;;;10.30;67.80;;;;;;5031643;28;20052;-46
2023/04/02 09:56:35;;;;;;;7.32;6.57;;;10.30;67.70;;;;;;5028656;28;20048;-48
2023/04/02 09:59:12;;;;;;;8.75;7.05;;;10.40;68.10;;;;;;5030354;28;20053;-50
2023/04/02 10:01:53;;;;;;;8.40;6.43;;;10.40;67.60;;;;;;5030999;28;20042;-46
2023/04/02 10:04:42;;;;;;;7.35;6.60;;;10.50;67.60;;;;;;5032522;28;20033;-49
2023/04/02 10:07:35;;;;;;;6.10;5.50;;;10.60;66.70;;;;;;5023408;28;20621;-48
2023/04/02 10:10:23;;;;;;;6.90;6.30;;;10.60;66.50;;;;;;5032937;28;20044;-47
2023/04/02 10:13:03;;;;;;;7.22;6.57;;;10.70;66.40;;;;;;5032605;28;20472;-46
2023/04/02 10:15:38;;;;;;;8.55;7.30;;;10.70;66.10;;;;;;5028031;28;20410;-50
2023/04/02 10:18:33;;;;;;;7.93;7.07;;;10.60;66.00;;;;;;5025310;28;20045;-50
2023/04/02 10:21:03;;;;;;;7.03;6.47;;;10.70;65.40;;;;;;5028287;28;20042;-48
2023/04/02 10:23:31;;;;;;;7.93;7.22;;;10.60;65.60;;;;;;5029631;28;20034;-49
2023/04/02 10:26:20;;;;;;;8.55;7.07;;;10.60;65.90;;;;;;5031391;28;20400;-50
2023/04/02 10:29:08;;;;;;;9.40;7.15;;;10.60;65.30;;;;;;5032283;28;20038;-47
2023/04/02 10:32:00;;;;;;;7.80;7.18;;;10.60;65.80;;;;;;5028528;28;20052;-50
2023/04/02 10:34:41;;;;;;;7.55;6.85;;;10.60;64.70;;;;;;5029981;28;20043;-48
2023/04/02 10:37:33;;;;;;;9.38;6.60;;;10.60;65.20;;;;;;5013198;28;20544;-49
2023/04/02 10:40:14;;;;;;;7.32;6.65;;;10.50;65.00;;;;;;5023598;28;20046;-49
2023/04/02 10:42:53;;;;;;;8.23;7.43;;;10.50;65.50;;;;;;5030582;28;20072;-48
2023/04/02 10:45:35;;;;;;;8.55;7.32;;;10.50;65.40;;;;;;5031253;28;20030;-46
2023/04/02 10:48:10;;;;;;;7.25;6.57;;;10.50;65.00;;;;;;5031739;28;20042;-50
2023/04/02 10:50:48;;;;;;;7.05;6.35;;;10.50;65.30;;;;;;5024013;28;20041;-49
2023/04/02 10:53:23;;;;;;;8.90;6.93;;;10.50;65.90;;;;;;5035680;28;20041;-49
2023/04/02 10:55:57;;;;;;;8.95;6.60;;;10.60;66.00;;;;;;5012744;28;20489;-50
2023/04/02 10:58:27;;;;;;;7.65;6.88;;;10.60;66.20;;;;;;5030986;28;20053;-48
2023/04/02 11:00:59;;;;;;;7.82;6.90;;;10.70;65.80;;;;;;5030136;28;20045;-49
2023/04/02 11:03:41;;;;;;;7.38;6.47;;;10.70;65.30;;;;;;5031534;28;20087;-46
2023/04/02 11:06:25;;;;;;;6.95;6.25;;;10.80;64.80;;;;;;5030267;28;20658;-51
2023/04/02 11:08:59;;;;;;;7.75;7.03;;;10.80;65.20;;;;;;5029981;28;20120;-46
2023/04/02 11:11:33;;;;;;;6.53;5.93;;;10.90;64.80;;;;;;5030365;28;20042;-47
2023/04/02 11:14:12;;;;;;;6.70;6.00;;;10.90;64.70;;;;;;5027847;28;20029;-47
2023/04/02 11:16:39;;;;;;;6.68;6.07;;;10.90;63.70;;;;;;5026199;28;20065;-46
2023/04/02 11:19:16;;;;;;;6.50;5.90;;;11.00;64.40;;;;;;5031974;28;20045;-49
2023/04/02 11:21:54;;;;;;;9.43;6.03;;;11.00;64.20;;;;;;5024891;28;20148;-46
2023/04/02 11:24:30;;;;;;;9.45;6.70;;;11.00;64.30;;;;;;5031191;28;20576;-45
2023/04/02 11:27:14;;;;;;;7.28;6.57;;;11.00;64.30;;;;;;5029124;28;20049;-49
2023/04/02 11:30:15;;;;;;;8.63;6.70;;;11.00;64.00;;;;;;5024974;28;20517;-49
2023/04/02 11:32:46;;;;;;;7.50;6.10;;;11.10;64.40;;;;;;5028901;28;20510;-49
2023/04/02 11:35:39;;;;;;;6.57;5.32;;;11.20;64.70;;;;;;5029873;28;20523;-48
2023/04/02 11:38:10;;;;;;;6.93;6.40;;;11.20;63.80;;;;;;5008454;28;20082;-48
2023/04/02 11:40:45;;;;;;;7.40;6.03;;;11.20;64.00;;;;;;5028946;28;20084;-48
2023/04/02 11:43:34;;;;;;;7.75;6.53;;;11.30;63.50;;;;;;5028101;28;20041;-50
2023/04/02 11:46:07;;;;;;;6.25;5.68;;;11.30;63.10;;;;;;5028850;28;20121;-49
2023/04/02 11:48:35;;;;;;;;;;;11.30;63.50;;;;;;5030176;28;20037;-51
2023/04/02 11:51:21;;;;;;;6.32;5.50;;;11.40;64.20;;;;;;5026944;28;19925;-51
2023/04/02 11:53:53;;;;;;;7.32;6.63;;;11.30;62.50;;;;;;5029125;28;20044;-51
2023/04/02 11:57:02;;;;;;;7.55;5.78;;;11.30;62.90;;;;;;5030464;28;20041;-50
2023/04/02 11:59:44;;;;;;;7.55;6.50;;;11.40;62.60;;;;;;4994573;28;20045;-51
2023/04/02 12:03:01;;;;;;;7.80;5.88;;;11.30;62.60;;;;;;5023655;28;20041;-51
2023/04/02 12:05:41;;;;;;;7.60;5.60;;;11.40;62.50;;;;;;4926453;29;20051;-51
2023/04/02 12:08:31;;;;;;;6.47;5.88;;;11.40;63.10;;;;;;5029204;28;20048;-49
2023/04/02 12:11:01;;;;;;;7.05;5.95;;;11.40;63.60;;;;;;5004459;28;20053;-51
2023/04/02 12:13:40;;;;;;;6.80;6.20;;;11.50;63.20;;;;;;5029249;28;20037;-46
2023/04/02 12:16:11;;;;;;;8.43;6.32;;;11.50;62.60;;;;;;5021686;28;20534;-51
2023/04/02 12:18:45;;;;;;;6.00;5.43;;;11.50;63.30;;;;;;5026132;28;20045;-51
2023/04/02 12:21:17;;;;;;;6.15;5.65;;;11.50;62.80;;;;;;5024199;28;20037;-51
2023/04/02 12:23:46;;;;;;;7.60;6.43;;;11.60;62.30;;;;;;5028819;28;20494;-49
2023/04/02 12:26:37;;;;;;;6.40;5.80;;;11.60;62.80;;;;;;5029156;28;20116;-51
2023/04/02 12:29:25;;;;;;;7.57;6.07;;;11.70;61.80;;;;;;5021952;28;20034;-50
2023/04/02 12:31:53;;;;;;;7.32;6.45;;;11.60;61.70;;;;;;5025880;28;20049;-47
2023/04/02 12:34:23;;;;;;;7.13;5.53;;;11.60;62.10;;;;;;5028668;28;20498;-49
2023/04/02 12:36:58;;;;;;;5.93;5.43;;;11.60;62.10;;;;;;5027854;28;20070;-48
2023/04/02 12:39:26;;;;;;;6.05;5.60;;;11.60;62.00;;;;;;5025837;28;20045;-48
2023/04/02 12:41:55;;;;;;;5.65;5.20;;;11.60;62.00;;;;;;5028156;28;20567;-47
2023/04/02 12:44:26;;;;;;;7.40;6.10;;;11.60;61.90;;;;;;5010373;28;20049;-48
2023/04/02 12:46:57;;;;;;;5.80;5.30;;;11.50;61.60;;;;;;5022997;28;20049;-48
2023/04/02 12:49:30;;;;;;;6.07;5.30;;;11.50;61.90;;;;;;5025820;28;20037;-49
2023/04/02 12:51:57;;;;;;;5.60;5.10;;;11.50;62.00;;;;;;5026311;28;20053;-50
2023/04/02 12:54:24;;;;;;;6.43;5.82;;;11.50;62.10;;;;;;5028061;28;20044;-51
2023/04/02 12:57:20;;;;;;;5.80;4.93;;;11.50;62.10;;;;;;5027736;28;20056;-48
2023/04/02 12:59:51;;;;;;;5.80;5.13;;;11.60;61.50;;;;;;5024296;28;20049;-48
2023/04/02 13:02:21;;;;;;;5.13;4.70;;;11.60;62.10;;;;;;5025641;28;20740;-48
2023/04/02 13:04:53;;;;;;;6.03;5.32;;;11.70;61.90;;;;;;5026217;28;20069;-49
2023/04/02 13:07:22;;;;;;;;;;;11.70;61.40;;;;;;5026066;28;20041;-49
2023/04/02 13:09:54;;;;;;;4.75;4.35;;;11.80;62.00;;;;;;5027885;28;19932;-49
2023/04/02 13:12:33;;;;;;;4.75;4.25;;;11.80;61.70;;;;;;5027603;28;20045;-49
2023/04/02 13:15:16;;;;;;;4.57;4.18;;;11.80;60.50;;;;;;5025828;28;20414;-50
2023/04/02 13:18:00;;;;;;;5.82;4.10;;;11.80;61.50;;;;;;5023892;28;20834;-52
2023/04/02 13:20:37;;;;;;;8.07;4.47;;;11.80;61.20;;;;;;5025135;28;20041;-51
2023/04/02 13:23:31;;;;;;;4.82;4.43;;;11.80;60.70;;;;;;5026374;28;20068;-51
2023/04/02 13:26:17;;;;;;;;;;;11.80;60.40;;;;;;5027122;28;20038;-51
2023/04/02 13:29:08;;;;;;;5.25;4.80;;;11.80;61.90;;;;;;5027221;28;19925;-49
2023/04/02 13:31:44;;;;;;;5.43;4.65;;;11.80;60.70;;;;;;5028272;28;20053;-49
2023/04/02 13:34:10;;;;;;;5.03;4.63;;;11.80;60.70;;;;;;5021105;28;20096;-49
2023/04/02 13:36:44;;;;;;;4.70;4.32;;;11.80;61.30;;;;;;5028065;28;20042;-51
2023/04/02 13:39:13;;;;;;;4.47;4.07;;;11.80;61.20;;;;;;5027765;28;20052;-50
2023/04/02 13:41:44;;;;;;;5.15;4.70;;;11.80;61.30;;;;;;5022183;28;20167;-49
2023/04/02 13:44:23;;;;;;;5.88;4.00;;;11.80;60.80;;;;;;5029454;28;20060;-49
2023/04/02 13:46:51;;;;;;;4.68;4.20;;;11.80;60.40;;;;;;5029709;28;20048;-51
2023/04/02 13:49:22;;;;;;;4.82;4.40;;;11.80;60.90;;;;;;5025656;28;20409;-51